sensor_id;sensor_type;location;lat;lon;timestamp;P1;durP1;ratioP1;P2;durP2;ratioP2
74920;SDS011;63483;47.384;8.860;2023-04-03T00:01:27;3.47;;;1.57;;
74920;SDS011;63483;47.384;8.860;2023-04-03T00:03:53;2.50;;;2.07;;
74920;SDS011;63483;47.384;8.860;2023-04-03T00:06:18;2.60;;;1.87;;
74920;SDS011;63483;47.384;8.860;2023-04-03T00:08:44;2.47;;;1.80;;
74920;SDS011;63483;47.384;8.860;2023-04-03T00:11:10;2.92;;;1.98;;
74920;SDS011;63483;47.384;8.860;2023-04-03T00:13:35;2.83;;;2.10;;
74920;SDS011;63483;47.384;8.860;2023-04-03T00:16:01;3.13;;;2.03;;
74920;SDS011;63483;47.384;8.860;2023-04-03T00:18:28;2.40;;;1.40;;
74920;SDS011;63483;47.384;8.860;2023-04-03T00:20:54;3.25;;;2.15;;
74920;SDS011;63483;47.384;8.860;2023-04-03T00:23:19;2.87;;;1.80;;
74920;SDS011;63483;47.384;8.860;2023-04-03T00:25:44;2.57;;;1.93;;
74920;SDS011;63483;47.384;8.860;2023-04-03T00:28:10;2.60;;;1.83;;
74920;SDS011;63483;47.384;8.860;2023-04-03T00:30:35;2.90;;;1.77;;
74920;SDS011;63483;47.384;8.860;2023-04-03T00:33:01;2.90;;;1.90;;
74920;SDS011;63483;47.384;8.860;2023-04-03T00:35:27;3.10;;;1.97;;
74920;SDS011;63483;47.384;8.860;2023-04-03T00:37:53;2.55;;;1.70;;
74920;SDS011;63483;47.384;8.860;2023-04-03T00:40:20;2.83;;;1.80;;
74920;SDS011;63483;47.384;8.860;2023-04-03T00:42:48;3.63;;;2.25;;
74920;SDS011;63483;47.384;8.860;2023-04-03T00:47:50;3.33;;;2.40;;
74920;SDS011;63483;47.384;8.860;2023-04-03T00:50:16;3.25;;;2.05;;
74920;SDS011;63483;47.384;8.860;2023-04-03T00:52:42;3.88;;;2.60;;
74920;SDS011;63483;47.384;8.860;2023-04-03T00:55:11;3.70;;;2.67;;
74920;SDS011;63483;47.384;8.860;2023-04-03T00:57:37;4.10;;;3.17;;
74920;SDS011;63483;47.384;8.860;2023-04-03T01:00:05;3.28;;;2.42;;
74920;SDS011;63483;47.384;8.860;2023-04-03T01:02:34;3.75;;;2.30;;
74920;SDS011;63483;47.384;8.860;2023-04-03T01:05:00;3.00;;;2.40;;
74920;SDS011;63483;47.384;8.860;2023-04-03T01:07:27;3.58;;;2.58;;
74920;SDS011;63483;47.384;8.860;2023-04-03T01:09:59;3.40;;;1.97;;
74920;SDS011;63483;47.384;8.860;2023-04-03T01:12:28;2.80;;;2.10;;
74920;SDS011;63483;47.384;8.860;2023-04-03T01:14:54;3.00;;;2.00;;
74920;SDS011;63483;47.384;8.860;2023-04-03T01:17:29;2.97;;;2.00;;
74920;SDS011;63483;47.384;8.860;2023-04-03T01:20:14;3.05;;;2.42;;
74920;SDS011;63483;47.384;8.860;2023-04-03T01:28:11;3.33;;;2.42;;
74920;SDS011;63483;47.384;8.860;2023-04-03T01:33:35;3.72;;;2.60;;
74920;SDS011;63483;47.384;8.860;2023-04-03T01:36:02;3.10;;;2.20;;
74920;SDS011;63483;47.384;8.860;2023-04-03T01:38:28;3.10;;;1.90;;
74920;SDS011;63483;47.384;8.860;2023-04-03T01:40:53;3.40;;;2.27;;
74920;SDS011;63483;47.384;8.860;2023-04-03T01:43:19;2.70;;;1.67;;
74920;SDS011;63483;47.384;8.860;2023-04-03T01:45:44;3.40;;;2.43;;
74920;SDS011;63483;47.384;8.860;2023-04-03T01:48:11;4.60;;;2.70;;
74920;SDS011;63483;47.384;8.860;2023-04-03T01:50:37;3.00;;;2.10;;
74920;SDS011;63483;47.384;8.860;2023-04-03T01:53:02;3.37;;;2.50;;
74920;SDS011;63483;47.384;8.860;2023-04-03T01:55:27;3.80;;;2.85;;
74920;SDS011;63483;47.384;8.860;2023-04-03T01:57:53;6.03;;;2.73;;
74920;SDS011;63483;47.384;8.860;2023-04-03T02:00:18;4.00;;;2.57;;
74920;SDS011;63483;47.384;8.860;2023-04-03T02:02:44;4.67;;;3.40;;
74920;SDS011;63483;47.384;8.860;2023-04-03T02:05:09;4.40;;;3.53;;
74920;SDS011;63483;47.384;8.860;2023-04-03T02:07:35;4.72;;;3.42;;
74920;SDS011;63483;47.384;8.860;2023-04-03T02:10:00;4.90;;;2.90;;
74920;SDS011;63483;47.384;8.860;2023-04-03T02:12:26;4.23;;;2.83;;
74920;SDS011;63483;47.384;8.860;2023-04-03T02:14:51;5.30;;;3.70;;
74920;SDS011;63483;47.384;8.860;2023-04-03T02:17:16;5.80;;;3.93;;
74920;SDS011;63483;47.384;8.860;2023-04-03T02:19:42;6.22;;;3.47;;
74920;SDS011;63483;47.384;8.860;2023-04-03T02:22:07;4.67;;;3.80;;
74920;SDS011;63483;47.384;8.860;2023-04-03T02:24:32;4.63;;;3.50;;
74920;SDS011;63483;47.384;8.860;2023-04-03T02:26:58;4.30;;;3.20;;
74920;SDS011;63483;47.384;8.860;2023-04-03T02:29:23;4.87;;;3.50;;
74920;SDS011;63483;47.384;8.860;2023-04-03T02:31:49;5.00;;;3.07;;
74920;SDS011;63483;47.384;8.860;2023-04-03T02:34:14;4.57;;;3.38;;
74920;SDS011;63483;47.384;8.860;2023-04-03T02:36:40;5.10;;;2.87;;
74920;SDS011;63483;47.384;8.860;2023-04-03T02:39:05;4.33;;;2.83;;
74920;SDS011;63483;47.384;8.860;2023-04-03T02:41:30;4.10;;;2.80;;
74920;SDS011;63483;47.384;8.860;2023-04-03T02:44:02;3.73;;;3.17;;
74920;SDS011;63483;47.384;8.860;2023-04-03T02:46:29;4.07;;;3.20;;
74920;SDS011;63483;47.384;8.860;2023-04-03T02:48:54;3.83;;;2.73;;
74920;SDS011;63483;47.384;8.860;2023-04-03T02:51:19;3.63;;;2.73;;
74920;SDS011;63483;47.384;8.860;2023-04-03T02:53:45;4.82;;;3.15;;
74920;SDS011;63483;47.384;8.860;2023-04-03T02:56:10;4.30;;;3.30;;
74920;SDS011;63483;47.384;8.860;2023-04-03T02:58:36;4.40;;;3.20;;
74920;SDS011;63483;47.384;8.860;2023-04-03T03:01:01;4.43;;;3.27;;
74920;SDS011;63483;47.384;8.860;2023-04-03T03:03:27;4.67;;;3.20;;
74920;SDS011;63483;47.384;8.860;2023-04-03T03:06:05;4.97;;;3.33;;
74920;SDS011;63483;47.384;8.860;2023-04-03T03:08:32;5.05;;;3.40;;
74920;SDS011;63483;47.384;8.860;2023-04-03T03:10:58;4.93;;;3.43;;
74920;SDS011;63483;47.384;8.860;2023-04-03T03:13:23;5.45;;;3.95;;
74920;SDS011;63483;47.384;8.860;2023-04-03T03:15:49;6.40;;;3.97;;
74920;SDS011;63483;47.384;8.860;2023-04-03T03:18:15;4.70;;;3.40;;
74920;SDS011;63483;47.384;8.860;2023-04-03T03:20:40;5.07;;;3.63;;
74920;SDS011;63483;47.384;8.860;2023-04-03T03:23:05;7.50;;;4.07;;
74920;SDS011;63483;47.384;8.860;2023-04-03T03:25:31;6.00;;;4.67;;
74920;SDS011;63483;47.384;8.860;2023-04-03T03:27:56;6.73;;;4.83;;
74920;SDS011;63483;47.384;8.860;2023-04-03T03:30:21;7.00;;;4.97;;
74920;SDS011;63483;47.384;8.860;2023-04-03T03:32:47;8.47;;;5.00;;
74920;SDS011;63483;47.384;8.860;2023-04-03T03:35:12;5.13;;;3.60;;
74920;SDS011;63483;47.384;8.860;2023-04-03T03:37:37;6.83;;;5.07;;
74920;SDS011;63483;47.384;8.860;2023-04-03T03:40:03;5.67;;;4.07;;
74920;SDS011;63483;47.384;8.860;2023-04-03T03:42:28;5.70;;;4.20;;
74920;SDS011;63483;47.384;8.860;2023-04-03T03:44:54;6.15;;;3.95;;
74920;SDS011;63483;47.384;8.860;2023-04-03T03:47:19;5.50;;;3.73;;
74920;SDS011;63483;47.384;8.860;2023-04-03T03:49:45;5.40;;;4.43;;
74920;SDS011;63483;47.384;8.860;2023-04-03T03:52:10;6.73;;;4.70;;
74920;SDS011;63483;47.384;8.860;2023-04-03T03:54:36;6.13;;;4.10;;
74920;SDS011;63483;47.384;8.860;2023-04-03T03:57:02;5.43;;;3.92;;
74920;SDS011;63483;47.384;8.860;2023-04-03T03:59:27;6.13;;;4.90;;
74920;SDS011;63483;47.384;8.860;2023-04-03T04:01:53;6.93;;;4.27;;
74920;SDS011;63483;47.384;8.860;2023-04-03T04:04:18;7.33;;;5.07;;
74920;SDS011;63483;47.384;8.860;2023-04-03T04:06:44;6.03;;;4.43;;
74920;SDS011;63483;47.384;8.860;2023-04-03T04:09:09;6.72;;;4.57;;
74920;SDS011;63483;47.384;8.860;2023-04-03T04:11:35;5.87;;;4.40;;
74920;SDS011;63483;47.384;8.860;2023-04-03T04:14:00;6.57;;;4.23;;
74920;SDS011;63483;47.384;8.860;2023-04-03T04:16:25;6.93;;;4.17;;
74920;SDS011;63483;47.384;8.860;2023-04-03T04:18:51;6.83;;;4.73;;
74920;SDS011;63483;47.384;8.860;2023-04-03T04:21:16;6.30;;;4.73;;
74920;SDS011;63483;47.384;8.860;2023-04-03T04:23:41;7.47;;;4.95;;
74920;SDS011;63483;47.384;8.860;2023-04-03T04:26:07;6.57;;;4.50;;
74920;SDS011;63483;47.384;8.860;2023-04-03T04:28:32;6.43;;;4.23;;
74920;SDS011;63483;47.384;8.860;2023-04-03T04:30:57;5.87;;;3.87;;
74920;SDS011;63483;47.384;8.860;2023-04-03T04:33:23;6.30;;;4.40;;
74920;SDS011;63483;47.384;8.860;2023-04-03T04:35:48;6.97;;;4.93;;
74920;SDS011;63483;47.384;8.860;2023-04-03T04:38:13;7.83;;;5.20;;
74920;SDS011;63483;47.384;8.860;2023-04-03T04:40:39;6.03;;;4.40;;
74920;SDS011;63483;47.384;8.860;2023-04-03T04:43:05;6.10;;;3.97;;
74920;SDS011;63483;47.384;8.860;2023-04-03T04:45:31;7.85;;;4.95;;
74920;SDS011;63483;47.384;8.860;2023-04-03T04:47:56;6.83;;;4.77;;
74920;SDS011;63483;47.384;8.860;2023-04-03T04:50:22;6.47;;;4.80;;
74920;SDS011;63483;47.384;8.860;2023-04-03T04:52:47;6.47;;;4.20;;
74920;SDS011;63483;47.384;8.860;2023-04-03T04:55:12;6.90;;;4.93;;
74920;SDS011;63483;47.384;8.860;2023-04-03T04:57:38;6.73;;;4.87;;
74920;SDS011;63483;47.384;8.860;2023-04-03T05:00:03;6.33;;;4.23;;
74920;SDS011;63483;47.384;8.860;2023-04-03T05:02:29;6.35;;;4.93;;
74920;SDS011;63483;47.384;8.860;2023-04-03T05:04:55;7.03;;;4.60;;
74920;SDS011;63483;47.384;8.860;2023-04-03T05:07:21;6.70;;;4.80;;
74920;SDS011;63483;47.384;8.860;2023-04-03T05:09:47;7.13;;;5.00;;
74920;SDS011;63483;47.384;8.860;2023-04-03T05:12:12;6.87;;;4.80;;
74920;SDS011;63483;47.384;8.860;2023-04-03T05:14:38;7.33;;;4.57;;
74920;SDS011;63483;47.384;8.860;2023-04-03T05:17:03;6.00;;;3.90;;
74920;SDS011;63483;47.384;8.860;2023-04-03T05:19:28;8.43;;;5.20;;
74920;SDS011;63483;47.384;8.860;2023-04-03T05:21:54;7.07;;;4.65;;
74920;SDS011;63483;47.384;8.860;2023-04-03T05:24:19;8.63;;;5.40;;
74920;SDS011;63483;47.384;8.860;2023-04-03T05:26:46;6.93;;;4.70;;
74920;SDS011;63483;47.384;8.860;2023-04-03T05:29:12;8.03;;;4.73;;
74920;SDS011;63483;47.384;8.860;2023-04-03T05:31:37;8.10;;;5.53;;
74920;SDS011;63483;47.384;8.860;2023-04-03T05:34:02;7.23;;;5.50;;
74920;SDS011;63483;47.384;8.860;2023-04-03T05:36:28;10.82;;;5.00;;
74920;SDS011;63483;47.384;8.860;2023-04-03T05:38:53;8.37;;;4.87;;
74920;SDS011;63483;47.384;8.860;2023-04-03T05:41:21;6.47;;;3.90;;
74920;SDS011;63483;47.384;8.860;2023-04-03T05:43:47;7.30;;;4.40;;
74920;SDS011;63483;47.384;8.860;2023-04-03T05:46:13;7.97;;;5.10;;
74920;SDS011;63483;47.384;8.860;2023-04-03T05:48:41;7.17;;;4.70;;
74920;SDS011;63483;47.384;8.860;2023-04-03T05:51:07;6.97;;;4.45;;
74920;SDS011;63483;47.384;8.860;2023-04-03T05:53:38;7.32;;;5.32;;
74920;SDS011;63483;47.384;8.860;2023-04-03T05:56:03;6.90;;;4.73;;
74920;SDS011;63483;47.384;8.860;2023-04-03T05:58:29;7.47;;;5.35;;
74920;SDS011;63483;47.384;8.860;2023-04-03T06:00:54;6.70;;;4.10;;
74920;SDS011;63483;47.384;8.860;2023-04-03T06:03:20;5.43;;;3.83;;
74920;SDS011;63483;47.384;8.860;2023-04-03T06:05:45;8.87;;;4.40;;
74920;SDS011;63483;47.384;8.860;2023-04-03T06:08:11;7.20;;;4.32;;
74920;SDS011;63483;47.384;8.860;2023-04-03T06:10:37;5.87;;;4.00;;
74920;SDS011;63483;47.384;8.860;2023-04-03T06:13:03;6.60;;;4.05;;
74920;SDS011;63483;47.384;8.860;2023-04-03T06:15:28;6.67;;;5.07;;
74920;SDS011;63483;47.384;8.860;2023-04-03T06:17:53;7.53;;;5.13;;
74920;SDS011;63483;47.384;8.860;2023-04-03T06:20:19;6.87;;;4.30;;
74920;SDS011;63483;47.384;8.860;2023-04-03T06:22:44;8.50;;;4.55;;
74920;SDS011;63483;47.384;8.860;2023-04-03T06:25:11;9.17;;;4.77;;
74920;SDS011;63483;47.384;8.860;2023-04-03T06:27:37;5.53;;;3.35;;
74920;SDS011;63483;47.384;8.860;2023-04-03T06:30:03;8.25;;;4.00;;
74920;SDS011;63483;47.384;8.860;2023-04-03T06:32:29;7.18;;;3.97;;
74920;SDS011;63483;47.384;8.860;2023-04-03T06:34:55;5.73;;;3.70;;
74920;SDS011;63483;47.384;8.860;2023-04-03T06:37:22;8.52;;;4.25;;
74920;SDS011;63483;47.384;8.860;2023-04-03T06:39:50;5.53;;;4.00;;
74920;SDS011;63483;47.384;8.860;2023-04-03T06:42:16;7.47;;;4.40;;
74920;SDS011;63483;47.384;8.860;2023-04-03T06:44:41;7.03;;;4.63;;
74920;SDS011;63483;47.384;8.860;2023-04-03T06:47:09;7.30;;;4.47;;
74920;SDS011;63483;47.384;8.860;2023-04-03T06:49:36;6.05;;;3.75;;
74920;SDS011;63483;47.384;8.860;2023-04-03T06:52:02;7.70;;;4.93;;
74920;SDS011;63483;47.384;8.860;2023-04-03T06:54:27;7.03;;;3.78;;
74920;SDS011;63483;47.384;8.860;2023-04-03T06:56:52;6.40;;;4.17;;
74920;SDS011;63483;47.384;8.860;2023-04-03T06:59:18;7.30;;;4.77;;
74920;SDS011;63483;47.384;8.860;2023-04-03T07:01:44;8.00;;;3.92;;
74920;SDS011;63483;47.384;8.860;2023-04-03T07:04:10;8.00;;;5.13;;
74920;SDS011;63483;47.384;8.860;2023-04-03T07:06:35;6.57;;;4.57;;
74920;SDS011;63483;47.384;8.860;2023-04-03T07:09:01;5.18;;;3.10;;
74920;SDS011;63483;47.384;8.860;2023-04-03T07:11:27;5.00;;;3.00;;
74920;SDS011;63483;47.384;8.860;2023-04-03T07:13:53;9.23;;;4.63;;
74920;SDS011;63483;47.384;8.860;2023-04-03T07:16:18;7.33;;;5.03;;
74920;SDS011;63483;47.384;8.860;2023-04-03T07:18:44;8.87;;;4.67;;
74920;SDS011;63483;47.384;8.860;2023-04-03T07:21:09;6.67;;;4.50;;
74920;SDS011;63483;47.384;8.860;2023-04-03T07:23:35;5.33;;;4.07;;
74920;SDS011;63483;47.384;8.860;2023-04-03T07:26:01;8.80;;;5.40;;
74920;SDS011;63483;47.384;8.860;2023-04-03T07:28:26;6.60;;;4.43;;
74920;SDS011;63483;47.384;8.860;2023-04-03T07:31:02;6.83;;;5.00;;
74920;SDS011;63483;47.384;8.860;2023-04-03T07:33:29;6.45;;;3.78;;
74920;SDS011;63483;47.384;8.860;2023-04-03T07:35:56;5.93;;;4.37;;
74920;SDS011;63483;47.384;8.860;2023-04-03T07:38:21;6.68;;;4.15;;
74920;SDS011;63483;47.384;8.860;2023-04-03T07:40:47;5.90;;;4.47;;
74920;SDS011;63483;47.384;8.860;2023-04-03T07:43:14;6.13;;;4.10;;
74920;SDS011;63483;47.384;8.860;2023-04-03T07:45:40;6.00;;;4.15;;
74920;SDS011;63483;47.384;8.860;2023-04-03T07:48:06;6.50;;;4.60;;
74920;SDS011;63483;47.384;8.860;2023-04-03T07:50:32;8.60;;;4.83;;
74920;SDS011;63483;47.384;8.860;2023-04-03T07:52:57;7.20;;;4.57;;
74920;SDS011;63483;47.384;8.860;2023-04-03T07:55:23;8.23;;;5.10;;
74920;SDS011;63483;47.384;8.860;2023-04-03T07:57:49;7.88;;;4.57;;
74920;SDS011;63483;47.384;8.860;2023-04-03T08:00:15;8.52;;;5.03;;
74920;SDS011;63483;47.384;8.860;2023-04-03T08:02:42;7.17;;;4.87;;
74920;SDS011;63483;47.384;8.860;2023-04-03T08:05:09;5.55;;;3.38;;
74920;SDS011;63483;47.384;8.860;2023-04-03T08:07:36;7.10;;;5.28;;
74920;SDS011;63483;47.384;8.860;2023-04-03T08:10:02;7.55;;;4.97;;
74920;SDS011;63483;47.384;8.860;2023-04-03T08:12:28;5.67;;;4.10;;
74920;SDS011;63483;47.384;8.860;2023-04-03T08:14:54;6.28;;;4.53;;
74920;SDS011;63483;47.384;8.860;2023-04-03T08:17:20;7.22;;;4.97;;
74920;SDS011;63483;47.384;8.860;2023-04-03T08:19:46;5.43;;;3.87;;
74920;SDS011;63483;47.384;8.860;2023-04-03T08:22:11;6.63;;;4.37;;
74920;SDS011;63483;47.384;8.860;2023-04-03T08:24:37;6.60;;;4.73;;
74920;SDS011;63483;47.384;8.860;2023-04-03T08:27:02;6.90;;;3.93;;
74920;SDS011;63483;47.384;8.860;2023-04-03T08:29:27;7.37;;;4.80;;
74920;SDS011;63483;47.384;8.860;2023-04-03T08:31:53;7.30;;;4.57;;
74920;SDS011;63483;47.384;8.860;2023-04-03T08:34:19;6.73;;;4.27;;
74920;SDS011;63483;47.384;8.860;2023-04-03T08:36:45;6.22;;;4.35;;
74920;SDS011;63483;47.384;8.860;2023-04-03T08:39:11;7.63;;;4.88;;
74920;SDS011;63483;47.384;8.860;2023-04-03T08:41:37;7.23;;;4.27;;
74920;SDS011;63483;47.384;8.860;2023-04-03T08:46:59;5.95;;;4.47;;
74920;SDS011;63483;47.384;8.860;2023-04-03T08:51:57;7.00;;;4.75;;
74920;SDS011;63483;47.384;8.860;2023-04-03T08:54:35;5.83;;;4.67;;
74920;SDS011;63483;47.384;8.860;2023-04-03T08:57:17;7.60;;;4.15;;
74920;SDS011;63483;47.384;8.860;2023-04-03T08:59:51;7.65;;;4.75;;
74920;SDS011;63483;47.384;8.860;2023-04-03T09:04:58;6.47;;;4.90;;
74920;SDS011;63483;47.384;8.860;2023-04-03T09:07:36;8.83;;;5.17;;
74920;SDS011;63483;47.384;8.860;2023-04-03T09:10:08;5.93;;;4.20;;
74920;SDS011;63483;47.384;8.860;2023-04-03T09:12:38;7.07;;;5.00;;
74920;SDS011;63483;47.384;8.860;2023-04-03T09:15:10;7.82;;;5.55;;
74920;SDS011;63483;47.384;8.860;2023-04-03T09:26:05;5.90;;;4.35;;
74920;SDS011;63483;47.384;8.860;2023-04-03T09:28:37;7.28;;;5.13;;
74920;SDS011;63483;47.384;8.860;2023-04-03T09:34:23;7.80;;;5.50;;
74920;SDS011;63483;47.384;8.860;2023-04-03T09:36:52;6.23;;;4.67;;
74920;SDS011;63483;47.384;8.860;2023-04-03T09:39:24;7.43;;;4.82;;
74920;SDS011;63483;47.384;8.860;2023-04-03T09:41:59;8.75;;;5.40;;
74920;SDS011;63483;47.384;8.860;2023-04-03T09:44:32;7.03;;;5.22;;
74920;SDS011;63483;47.384;8.860;2023-04-03T09:47:00;6.75;;;4.90;;
74920;SDS011;63483;47.384;8.860;2023-04-03T09:49:45;8.17;;;5.07;;
74920;SDS011;63483;47.384;8.860;2023-04-03T09:52:20;7.82;;;4.95;;
74920;SDS011;63483;47.384;8.860;2023-04-03T09:54:49;7.75;;;5.38;;
74920;SDS011;63483;47.384;8.860;2023-04-03T09:57:15;7.47;;;5.13;;
74920;SDS011;63483;47.384;8.860;2023-04-03T09:59:44;6.75;;;4.38;;
74920;SDS011;63483;47.384;8.860;2023-04-03T10:04:41;7.82;;;4.80;;
74920;SDS011;63483;47.384;8.860;2023-04-03T10:10:00;6.90;;;4.80;;
74920;SDS011;63483;47.384;8.860;2023-04-03T10:12:40;6.47;;;4.82;;
74920;SDS011;63483;47.384;8.860;2023-04-03T10:15:41;6.33;;;4.67;;
74920;SDS011;63483;47.384;8.860;2023-04-03T10:18:06;6.13;;;4.30;;
74920;SDS011;63483;47.384;8.860;2023-04-03T10:20:51;7.07;;;5.00;;
74920;SDS011;63483;47.384;8.860;2023-04-03T10:26:17;6.15;;;4.72;;
74920;SDS011;63483;47.384;8.860;2023-04-03T10:29:09;9.00;;;5.65;;
74920;SDS011;63483;47.384;8.860;2023-04-03T10:31:49;6.10;;;4.47;;
74920;SDS011;63483;47.384;8.860;2023-04-03T10:34:33;6.47;;;4.00;;
74920;SDS011;63483;47.384;8.860;2023-04-03T10:42:51;6.68;;;5.13;;
74920;SDS011;63483;47.384;8.860;2023-04-03T10:53:56;6.30;;;3.60;;
74920;SDS011;63483;47.384;8.860;2023-04-03T10:59:18;6.70;;;4.23;;
74920;SDS011;63483;47.384;8.860;2023-04-03T11:01:57;8.00;;;4.72;;
74920;SDS011;63483;47.384;8.860;2023-04-03T11:04:31;7.97;;;5.43;;
74920;SDS011;63483;47.384;8.860;2023-04-03T11:07:08;7.15;;;4.63;;
74920;SDS011;63483;47.384;8.860;2023-04-03T11:09:40;6.53;;;5.05;;
74920;SDS011;63483;47.384;8.860;2023-04-03T11:15:05;7.72;;;4.38;;
74920;SDS011;63483;47.384;8.860;2023-04-03T11:17:38;6.63;;;4.72;;
74920;SDS011;63483;47.384;8.860;2023-04-03T11:25:51;6.87;;;4.53;;
74920;SDS011;63483;47.384;8.860;2023-04-03T11:28:21;7.80;;;4.72;;
74920;SDS011;63483;47.384;8.860;2023-04-03T11:31:08;6.60;;;4.67;;
74920;SDS011;63483;47.384;8.860;2023-04-03T11:36:28;6.72;;;4.80;;
74920;SDS011;63483;47.384;8.860;2023-04-03T11:38:57;7.22;;;5.50;;
74920;SDS011;63483;47.384;8.860;2023-04-03T11:41:30;6.70;;;4.60;;
74920;SDS011;63483;47.384;8.860;2023-04-03T11:44:02;7.83;;;4.33;;
74920;SDS011;63483;47.384;8.860;2023-04-03T11:46:49;7.10;;;5.15;;
74920;SDS011;63483;47.384;8.860;2023-04-03T12:08:30;6.72;;;4.50;;
74920;SDS011;63483;47.384;8.860;2023-04-03T12:16:21;7.00;;;4.95;;
74920;SDS011;63483;47.384;8.860;2023-04-03T12:26:51;6.63;;;4.27;;
74920;SDS011;63483;47.384;8.860;2023-04-03T12:29:38;6.90;;;4.80;;
74920;SDS011;63483;47.384;8.860;2023-04-03T12:40:53;7.38;;;5.00;;
74920;SDS011;63483;47.384;8.860;2023-04-03T12:46:13;7.60;;;4.82;;
74920;SDS011;63483;47.384;8.860;2023-04-03T12:51:13;7.37;;;4.57;;
74920;SDS011;63483;47.384;8.860;2023-04-03T12:53:41;9.38;;;5.75;;
74920;SDS011;63483;47.384;8.860;2023-04-03T12:56:21;7.80;;;4.70;;
74920;SDS011;63483;47.384;8.860;2023-04-03T12:58:49;9.13;;;5.60;;
74920;SDS011;63483;47.384;8.860;2023-04-03T13:01:17;7.35;;;5.20;;
74920;SDS011;63483;47.384;8.860;2023-04-03T13:03:50;6.63;;;4.97;;
74920;SDS011;63483;47.384;8.860;2023-04-03T13:06:20;8.00;;;5.05;;
74920;SDS011;63483;47.384;8.860;2023-04-03T13:08:52;7.25;;;5.55;;
74920;SDS011;63483;47.384;8.860;2023-04-03T13:11:19;6.53;;;4.72;;
74920;SDS011;63483;47.384;8.860;2023-04-03T13:16:22;6.33;;;4.77;;
74920;SDS011;63483;47.384;8.860;2023-04-03T13:18:50;6.55;;;4.72;;
74920;SDS011;63483;47.384;8.860;2023-04-03T13:21:18;6.72;;;4.90;;
74920;SDS011;63483;47.384;8.860;2023-04-03T13:23:47;6.43;;;4.83;;
74920;SDS011;63483;47.384;8.860;2023-04-03T13:26:15;6.88;;;4.47;;
74920;SDS011;63483;47.384;8.860;2023-04-03T13:28:42;7.72;;;4.45;;
74920;SDS011;63483;47.384;8.860;2023-04-03T13:33:38;5.95;;;4.38;;
74920;SDS011;63483;47.384;8.860;2023-04-03T13:36:19;6.13;;;4.53;;
74920;SDS011;63483;47.384;8.860;2023-04-03T13:38:46;6.70;;;4.45;;
74920;SDS011;63483;47.384;8.860;2023-04-03T13:41:29;6.75;;;4.22;;
74920;SDS011;63483;47.384;8.860;2023-04-03T13:43:56;6.93;;;4.70;;
74920;SDS011;63483;47.384;8.860;2023-04-03T13:46:23;6.40;;;4.27;;
74920;SDS011;63483;47.384;8.860;2023-04-03T13:48:54;6.30;;;4.47;;
74920;SDS011;63483;47.384;8.860;2023-04-03T13:51:29;6.10;;;4.30;;
74920;SDS011;63483;47.384;8.860;2023-04-03T13:54:10;6.00;;;4.27;;
74920;SDS011;63483;47.384;8.860;2023-04-03T13:56:44;6.88;;;4.95;;
74920;SDS011;63483;47.384;8.860;2023-04-03T14:04:16;5.37;;;4.30;;
74920;SDS011;63483;47.384;8.860;2023-04-03T14:06:45;5.72;;;4.10;;
74920;SDS011;63483;47.384;8.860;2023-04-03T14:09:11;7.10;;;4.18;;
74920;SDS011;63483;47.384;8.860;2023-04-03T14:11:38;10.65;;;5.30;;
74920;SDS011;63483;47.384;8.860;2023-04-03T14:14:18;6.38;;;4.32;;
74920;SDS011;63483;47.384;8.860;2023-04-03T14:16:47;5.80;;;4.37;;
74920;SDS011;63483;47.384;8.860;2023-04-03T14:19:32;6.18;;;4.13;;
74920;SDS011;63483;47.384;8.860;2023-04-03T14:22:00;5.10;;;4.30;;
74920;SDS011;63483;47.384;8.860;2023-04-03T14:24:31;7.18;;;3.92;;
74920;SDS011;63483;47.384;8.860;2023-04-03T14:26:57;5.20;;;4.00;;
74920;SDS011;63483;47.384;8.860;2023-04-03T14:29:22;5.27;;;4.20;;
74920;SDS011;63483;47.384;8.860;2023-04-03T14:31:48;5.50;;;3.92;;
74920;SDS011;63483;47.384;8.860;2023-04-03T14:34:15;5.20;;;3.70;;
74920;SDS011;63483;47.384;8.860;2023-04-03T14:36:41;5.50;;;4.07;;
74920;SDS011;63483;47.384;8.860;2023-04-03T14:39:10;5.60;;;4.57;;
74920;SDS011;63483;47.384;8.860;2023-04-03T14:41:41;5.38;;;3.45;;
74920;SDS011;63483;47.384;8.860;2023-04-03T14:44:07;5.47;;;3.80;;
74920;SDS011;63483;47.384;8.860;2023-04-03T14:46:34;6.60;;;3.70;;
74920;SDS011;63483;47.384;8.860;2023-04-03T14:49:03;5.15;;;3.50;;
74920;SDS011;63483;47.384;8.860;2023-04-03T14:51:37;4.83;;;3.20;;
74920;SDS011;63483;47.384;8.860;2023-04-03T14:54:02;5.68;;;3.70;;
74920;SDS011;63483;47.384;8.860;2023-04-03T14:56:28;5.90;;;3.53;;
74920;SDS011;63483;47.384;8.860;2023-04-03T14:58:55;5.13;;;3.88;;
74920;SDS011;63483;47.384;8.860;2023-04-03T15:01:23;5.22;;;3.60;;
74920;SDS011;63483;47.384;8.860;2023-04-03T15:03:48;5.13;;;3.30;;
74920;SDS011;63483;47.384;8.860;2023-04-03T15:06:14;5.53;;;4.30;;
74920;SDS011;63483;47.384;8.860;2023-04-03T15:08:41;6.85;;;3.63;;
74920;SDS011;63483;47.384;8.860;2023-04-03T15:11:11;5.40;;;3.70;;
74920;SDS011;63483;47.384;8.860;2023-04-03T15:13:37;5.45;;;3.30;;
74920;SDS011;63483;47.384;8.860;2023-04-03T15:16:04;4.93;;;4.18;;
74920;SDS011;63483;47.384;8.860;2023-04-03T15:18:31;5.45;;;4.05;;
74920;SDS011;63483;47.384;8.860;2023-04-03T15:21:01;4.57;;;3.38;;
74920;SDS011;63483;47.384;8.860;2023-04-03T15:23:27;4.30;;;3.27;;
74920;SDS011;63483;47.384;8.860;2023-04-03T15:25:53;6.10;;;3.60;;
74920;SDS011;63483;47.384;8.860;2023-04-03T15:28:22;4.27;;;3.50;;
74920;SDS011;63483;47.384;8.860;2023-04-03T15:30:52;5.90;;;4.22;;
74920;SDS011;63483;47.384;8.860;2023-04-03T15:33:18;5.00;;;3.80;;
74920;SDS011;63483;47.384;8.860;2023-04-03T15:35:43;5.47;;;4.03;;
74920;SDS011;63483;47.384;8.860;2023-04-03T15:38:08;4.70;;;3.70;;
74920;SDS011;63483;47.384;8.860;2023-04-03T15:40:35;6.07;;;3.50;;
74920;SDS011;63483;47.384;8.860;2023-04-03T15:43:01;5.38;;;3.95;;
74920;SDS011;63483;47.384;8.860;2023-04-03T15:45:28;4.80;;;3.50;;
74920;SDS011;63483;47.384;8.860;2023-04-03T15:47:55;5.80;;;3.83;;
74920;SDS011;63483;47.384;8.860;2023-04-03T15:50:21;6.17;;;4.53;;
74920;SDS011;63483;47.384;8.860;2023-04-03T15:52:48;5.45;;;3.78;;
74920;SDS011;63483;47.384;8.860;2023-04-03T15:55:18;6.30;;;4.30;;
74920;SDS011;63483;47.384;8.860;2023-04-03T15:57:44;5.00;;;3.40;;
74920;SDS011;63483;47.384;8.860;2023-04-03T16:00:10;4.60;;;3.50;;
74920;SDS011;63483;47.384;8.860;2023-04-03T16:02:35;5.50;;;3.67;;
74920;SDS011;63483;47.384;8.860;2023-04-03T16:05:01;6.87;;;4.20;;
74920;SDS011;63483;47.384;8.860;2023-04-03T16:07:27;5.68;;;4.70;;
74920;SDS011;63483;47.384;8.860;2023-04-03T16:09:53;6.30;;;4.30;;
74920;SDS011;63483;47.384;8.860;2023-04-03T16:12:18;6.47;;;3.57;;
74920;SDS011;63483;47.384;8.860;2023-04-03T16:14:43;5.80;;;3.37;;
74920;SDS011;63483;47.384;8.860;2023-04-03T16:17:09;6.05;;;3.58;;
74920;SDS011;63483;47.384;8.860;2023-04-03T16:19:34;5.47;;;3.80;;
74920;SDS011;63483;47.384;8.860;2023-04-03T16:21:59;6.30;;;4.10;;
74920;SDS011;63483;47.384;8.860;2023-04-03T16:24:25;6.40;;;4.50;;
74920;SDS011;63483;47.384;8.860;2023-04-03T16:26:50;5.80;;;4.43;;
74920;SDS011;63483;47.384;8.860;2023-04-03T16:29:18;5.25;;;3.80;;
74920;SDS011;63483;47.384;8.860;2023-04-03T16:31:43;4.77;;;3.40;;
74920;SDS011;63483;47.384;8.860;2023-04-03T16:34:08;6.22;;;3.90;;
74920;SDS011;63483;47.384;8.860;2023-04-03T16:36:34;5.70;;;3.70;;
74920;SDS011;63483;47.384;8.860;2023-04-03T16:39:00;7.53;;;3.90;;
74920;SDS011;63483;47.384;8.860;2023-04-03T16:41:25;5.77;;;3.73;;
74920;SDS011;63483;47.384;8.860;2023-04-03T16:43:50;7.07;;;3.80;;
74920;SDS011;63483;47.384;8.860;2023-04-03T16:46:16;5.13;;;3.73;;
74920;SDS011;63483;47.384;8.860;2023-04-03T16:48:41;6.57;;;3.63;;
74920;SDS011;63483;47.384;8.860;2023-04-03T16:51:06;5.00;;;3.30;;
74920;SDS011;63483;47.384;8.860;2023-04-03T16:53:32;4.80;;;3.40;;
74920;SDS011;63483;47.384;8.860;2023-04-03T16:55:58;5.70;;;3.43;;